Weather at Cossato [CLOSED]

Public forecast

Using degrees Celsius for public forecast. Weather courtesy of forecast.io.

Closest aviation weather report (METAR) to Cossato

Report is more than 2 hours old.

Closest report is Cameri Air Base [MIL], 20.9 nm (38.7 km) ESE. Retrieved 2020/09/18 17:55 UTC (5 hours ago):

LIMN 181755Z 11003KT CAVOK 25/17 Q1018 RMK SKC VIS MIN 9999 BLK BLU

Closest aviation forecast (TAF) to Cossato

Forecast is more than 12 hours old.

Closest forecast is Cameri Air Base [MIL], 20.9 nm (38.7 km) ESE. Retrieved 2010/11/18 12:24 UTC (10 years ago):

TAF TAF LIMN 181100Z 1812/1921 VRB03KT 1500 RA BR BKN030